sensor_id;sensor_type;location;lat;lon;timestamp;pressure;altitude;pressure_sealevel;temperature;humidity
16461;BME280;8341;42.048;24.650;2023-03-04T00:02:22;97324.06;;;7.02;100.00
16461;BME280;8341;42.048;24.650;2023-03-04T00:04:49;97315.94;;;7.02;100.00
16461;BME280;8341;42.048;24.650;2023-03-04T00:07:16;97312.44;;;7.02;100.00
16461;BME280;8341;42.048;24.650;2023-03-04T00:09:44;97308.19;;;6.91;100.00
16461;BME280;8341;42.048;24.650;2023-03-04T00:12:11;97310.31;;;6.87;100.00
16461;BME280;8341;42.048;24.650;2023-03-04T00:14:38;97310.56;;;6.80;100.00
16461;BME280;8341;42.048;24.650;2023-03-04T00:17:07;97310.88;;;6.82;100.00
16461;BME280;8341;42.048;24.650;2023-03-04T00:19:34;97302.28;;;6.84;100.00
16461;BME280;8341;42.048;24.650;2023-03-04T00:22:02;97301.53;;;6.83;100.00
16461;BME280;8341;42.048;24.650;2023-03-04T00:24:30;97307.22;;;6.76;100.00
16461;BME280;8341;42.048;24.650;2023-03-04T00:26:57;97297.03;;;6.80;100.00
16461;BME280;8341;42.048;24.650;2023-03-04T00:29:24;97303.94;;;6.81;100.00
16461;BME280;8341;42.048;24.650;2023-03-04T00:31:52;97313.63;;;6.91;100.00
16461;BME280;8341;42.048;24.650;2023-03-04T00:34:20;97308.50;;;6.93;100.00
16461;BME280;8341;42.048;24.650;2023-03-04T00:36:47;97308.84;;;6.96;100.00
16461;BME280;8341;42.048;24.650;2023-03-04T00:39:14;97312.72;;;6.85;100.00
16461;BME280;8341;42.048;24.650;2023-03-04T00:41:41;97312.25;;;6.87;100.00
16461;BME280;8341;42.048;24.650;2023-03-04T00:44:08;97315.44;;;6.94;100.00
16461;BME280;8341;42.048;24.650;2023-03-04T00:46:35;97313.13;;;6.84;100.00
16461;BME280;8341;42.048;24.650;2023-03-04T00:49:03;97313.78;;;6.88;100.00
16461;BME280;8341;42.048;24.650;2023-03-04T00:51:31;97319.81;;;6.92;100.00
16461;BME280;8341;42.048;24.650;2023-03-04T00:53:58;97317.59;;;6.69;100.00
16461;BME280;8341;42.048;24.650;2023-03-04T00:56:25;97320.47;;;6.74;100.00
16461;BME280;8341;42.048;24.650;2023-03-04T00:58:52;97306.94;;;6.74;100.00
16461;BME280;8341;42.048;24.650;2023-03-04T01:01:19;97309.53;;;6.87;100.00
16461;BME280;8341;42.048;24.650;2023-03-04T01:03:46;97315.25;;;6.89;100.00
16461;BME280;8341;42.048;24.650;2023-03-04T01:06:13;97312.25;;;6.87;100.00
16461;BME280;8341;42.048;24.650;2023-03-04T01:08:42;97301.09;;;6.85;100.00
16461;BME280;8341;42.048;24.650;2023-03-04T01:11:09;97299.16;;;6.85;100.00
16461;BME280;8341;42.048;24.650;2023-03-04T01:13:36;97309.84;;;6.89;100.00
16461;BME280;8341;42.048;24.650;2023-03-04T01:16:03;97316.03;;;6.89;100.00
16461;BME280;8341;42.048;24.650;2023-03-04T01:18:30;97299.63;;;6.93;100.00
16461;BME280;8341;42.048;24.650;2023-03-04T01:20:57;97305.78;;;6.93;100.00
16461;BME280;8341;42.048;24.650;2023-03-04T01:23:24;97303.25;;;6.90;100.00
16461;BME280;8341;42.048;24.650;2023-03-04T01:25:53;97304.28;;;6.92;100.00
16461;BME280;8341;42.048;24.650;2023-03-04T01:28:20;97307.00;;;6.92;100.00
16461;BME280;8341;42.048;24.650;2023-03-04T01:30:47;97306.84;;;6.87;100.00
16461;BME280;8341;42.048;24.650;2023-03-04T01:33:14;97301.69;;;6.80;100.00
16461;BME280;8341;42.048;24.650;2023-03-04T01:35:41;97301.88;;;6.85;100.00
16461;BME280;8341;42.048;24.650;2023-03-04T01:38:08;97302.16;;;6.87;100.00
16461;BME280;8341;42.048;24.650;2023-03-04T01:40:36;97300.22;;;6.88;100.00
16461;BME280;8341;42.048;24.650;2023-03-04T01:43:05;97297.63;;;6.84;100.00
16461;BME280;8341;42.048;24.650;2023-03-04T01:45:32;97291.63;;;6.89;100.00
16461;BME280;8341;42.048;24.650;2023-03-04T01:47:59;97295.09;;;6.90;100.00
16461;BME280;8341;42.048;24.650;2023-03-04T01:50:29;97286.50;;;6.91;100.00
16461;BME280;8341;42.048;24.650;2023-03-04T01:52:57;97282.56;;;6.83;100.00
16461;BME280;8341;42.048;24.650;2023-03-04T01:55:24;97282.81;;;6.67;100.00
16461;BME280;8341;42.048;24.650;2023-03-04T01:57:51;97284.66;;;6.79;100.00
16461;BME280;8341;42.048;24.650;2023-03-04T02:00:28;97289.03;;;6.86;100.00
16461;BME280;8341;42.048;24.650;2023-03-04T02:02:59;97289.97;;;6.83;100.00
16461;BME280;8341;42.048;24.650;2023-03-04T02:05:27;97284.75;;;6.67;100.00
16461;BME280;8341;42.048;24.650;2023-03-04T02:07:56;97284.88;;;6.63;100.00
16461;BME280;8341;42.048;24.650;2023-03-04T02:10:24;97285.09;;;6.78;100.00
16461;BME280;8341;42.048;24.650;2023-03-04T02:12:51;97281.97;;;6.88;100.00
16461;BME280;8341;42.048;24.650;2023-03-04T02:15:18;97277.78;;;6.97;100.00
16461;BME280;8341;42.048;24.650;2023-03-04T02:17:47;97280.22;;;7.04;100.00
16461;BME280;8341;42.048;24.650;2023-03-04T02:20:27;97283.84;;;7.01;100.00
16461;BME280;8341;42.048;24.650;2023-03-04T02:23:01;97281.63;;;7.08;100.00
16461;BME280;8341;42.048;24.650;2023-03-04T02:25:34;97274.25;;;7.09;100.00
16461;BME280;8341;42.048;24.650;2023-03-04T02:28:03;97272.13;;;7.13;100.00
16461;BME280;8341;42.048;24.650;2023-03-04T02:30:30;97259.13;;;6.99;100.00
16461;BME280;8341;42.048;24.650;2023-03-04T02:32:57;97260.34;;;6.98;100.00
16461;BME280;8341;42.048;24.650;2023-03-04T02:35:24;97253.91;;;7.13;100.00
16461;BME280;8341;42.048;24.650;2023-03-04T02:37:51;97254.97;;;7.25;100.00
16461;BME280;8341;42.048;24.650;2023-03-04T02:40:22;97245.03;;;7.22;100.00
16461;BME280;8341;42.048;24.650;2023-03-04T02:42:50;97244.44;;;7.27;100.00
16461;BME280;8341;42.048;24.650;2023-03-04T02:45:35;97255.13;;;7.21;100.00
16461;BME280;8341;42.048;24.650;2023-03-04T02:48:02;97245.34;;;7.24;100.00
16461;BME280;8341;42.048;24.650;2023-03-04T02:50:33;97254.50;;;7.17;100.00
16461;BME280;8341;42.048;24.650;2023-03-04T02:53:00;97253.63;;;7.20;100.00
16461;BME280;8341;42.048;24.650;2023-03-04T02:55:27;97259.97;;;7.26;100.00
16461;BME280;8341;42.048;24.650;2023-03-04T02:57:54;97260.69;;;7.27;100.00
16461;BME280;8341;42.048;24.650;2023-03-04T03:00:21;97263.28;;;7.30;100.00
16461;BME280;8341;42.048;24.650;2023-03-04T03:02:50;97273.38;;;7.30;100.00
16461;BME280;8341;42.048;24.650;2023-03-04T03:05:17;97268.84;;;7.27;100.00
16461;BME280;8341;42.048;24.650;2023-03-04T03:07:44;97269.72;;;7.06;100.00
16461;BME280;8341;42.048;24.650;2023-03-04T03:10:11;97268.66;;;7.12;100.00
16461;BME280;8341;42.048;24.650;2023-03-04T03:12:38;97266.72;;;7.13;100.00
16461;BME280;8341;42.048;24.650;2023-03-04T03:15:06;97265.53;;;7.14;100.00
16461;BME280;8341;42.048;24.650;2023-03-04T03:17:33;97272.59;;;7.20;100.00
16461;BME280;8341;42.048;24.650;2023-03-04T03:20:02;97279.53;;;6.81;100.00
16461;BME280;8341;42.048;24.650;2023-03-04T03:22:29;97273.75;;;6.61;100.00
16461;BME280;8341;42.048;24.650;2023-03-04T03:24:56;97274.59;;;6.80;100.00
16461;BME280;8341;42.048;24.650;2023-03-04T03:27:23;97271.53;;;6.78;100.00
16461;BME280;8341;42.048;24.650;2023-03-04T03:29:50;97274.13;;;6.81;100.00
16461;BME280;8341;42.048;24.650;2023-03-04T03:32:17;97274.75;;;6.85;100.00
16461;BME280;8341;42.048;24.650;2023-03-04T03:34:44;97272.47;;;6.84;100.00
16461;BME280;8341;42.048;24.650;2023-03-04T03:37:13;97268.53;;;6.76;100.00
16461;BME280;8341;42.048;24.650;2023-03-04T03:39:40;97268.41;;;6.79;100.00
16461;BME280;8341;42.048;24.650;2023-03-04T03:42:06;97261.94;;;6.86;100.00
16461;BME280;8341;42.048;24.650;2023-03-04T03:44:33;97268.88;;;6.87;100.00
16461;BME280;8341;42.048;24.650;2023-03-04T03:47:01;97269.66;;;6.87;100.00
16461;BME280;8341;42.048;24.650;2023-03-04T03:49:28;97268.88;;;6.87;100.00
16461;BME280;8341;42.048;24.650;2023-03-04T03:51:55;97272.78;;;6.86;100.00
16461;BME280;8341;42.048;24.650;2023-03-04T03:54:23;97273.53;;;6.86;100.00
16461;BME280;8341;42.048;24.650;2023-03-04T03:56:50;97260.84;;;6.74;100.00
16461;BME280;8341;42.048;24.650;2023-03-04T03:59:17;97259.59;;;6.57;100.00
16461;BME280;8341;42.048;24.650;2023-03-04T04:01:44;97263.78;;;6.58;100.00
16461;BME280;8341;42.048;24.650;2023-03-04T04:04:11;97259.63;;;6.66;100.00
16461;BME280;8341;42.048;24.650;2023-03-04T04:06:38;97260.69;;;6.69;100.00
16461;BME280;8341;42.048;24.650;2023-03-04T04:09:05;97262.03;;;6.73;100.00
16461;BME280;8341;42.048;24.650;2023-03-04T04:11:33;97265.22;;;6.72;100.00
16461;BME280;8341;42.048;24.650;2023-03-04T04:14:00;97261.56;;;6.66;100.00
16461;BME280;8341;42.048;24.650;2023-03-04T04:16:27;97262.63;;;6.68;100.00
16461;BME280;8341;42.048;24.650;2023-03-04T04:18:54;97266.56;;;6.67;100.00
16461;BME280;8341;42.048;24.650;2023-03-04T04:21:21;97265.63;;;6.61;100.00
16461;BME280;8341;42.048;24.650;2023-03-04T04:23:48;97278.03;;;6.50;100.00
16461;BME280;8341;42.048;24.650;2023-03-04T04:26:15;97269.78;;;6.53;100.00
16461;BME280;8341;42.048;24.650;2023-03-04T04:28:43;97274.50;;;6.31;100.00
16461;BME280;8341;42.048;24.650;2023-03-04T04:31:10;97278.53;;;6.26;100.00
16461;BME280;8341;42.048;24.650;2023-03-04T04:33:37;97276.38;;;6.21;100.00
16461;BME280;8341;42.048;24.650;2023-03-04T04:36:04;97278.16;;;6.15;100.00
16461;BME280;8341;42.048;24.650;2023-03-04T04:38:31;97279.13;;;6.30;100.00
16461;BME280;8341;42.048;24.650;2023-03-04T04:40:58;97280.59;;;6.44;100.00
16461;BME280;8341;42.048;24.650;2023-03-04T04:43:25;97276.66;;;6.45;100.00
16461;BME280;8341;42.048;24.650;2023-03-04T04:45:54;97273.25;;;6.54;100.00
16461;BME280;8341;42.048;24.650;2023-03-04T04:48:21;97276.09;;;6.50;100.00
16461;BME280;8341;42.048;24.650;2023-03-04T04:50:53;97279.47;;;6.63;100.00
16461;BME280;8341;42.048;24.650;2023-03-04T04:53:21;97281.28;;;6.66;100.00
16461;BME280;8341;42.048;24.650;2023-03-04T04:55:47;97282.19;;;6.63;100.00
16461;BME280;8341;42.048;24.650;2023-03-04T04:58:14;97278.13;;;6.68;100.00
16461;BME280;8341;42.048;24.650;2023-03-04T05:00:41;97288.97;;;6.68;100.00
16461;BME280;8341;42.048;24.650;2023-03-04T05:03:10;97279.53;;;6.72;100.00
16461;BME280;8341;42.048;24.650;2023-03-04T05:05:36;97294.38;;;6.68;100.00
16461;BME280;8341;42.048;24.650;2023-03-04T05:08:04;97284.09;;;6.54;100.00
16461;BME280;8341;42.048;24.650;2023-03-04T05:10:31;97283.09;;;6.39;100.00
16461;BME280;8341;42.048;24.650;2023-03-04T05:12:58;97279.75;;;6.35;100.00
16461;BME280;8341;42.048;24.650;2023-03-04T05:15:25;97295.88;;;6.38;100.00
16461;BME280;8341;42.048;24.650;2023-03-04T05:17:52;97292.00;;;6.39;100.00
16461;BME280;8341;42.048;24.650;2023-03-04T05:20:20;97304.00;;;6.38;100.00
16461;BME280;8341;42.048;24.650;2023-03-04T05:22:50;97305.06;;;6.41;100.00
16461;BME280;8341;42.048;24.650;2023-03-04T05:25:17;97301.88;;;6.33;100.00
16461;BME280;8341;42.048;24.650;2023-03-04T05:27:43;97299.09;;;6.24;100.00
16461;BME280;8341;42.048;24.650;2023-03-04T05:30:11;97298.94;;;6.18;100.00
16461;BME280;8341;42.048;24.650;2023-03-04T05:32:38;97289.47;;;6.23;100.00
16461;BME280;8341;42.048;24.650;2023-03-04T05:35:06;97301.00;;;6.36;100.00
16461;BME280;8341;42.048;24.650;2023-03-04T05:37:34;97309.44;;;6.38;100.00
16461;BME280;8341;42.048;24.650;2023-03-04T05:40:01;97305.78;;;6.10;100.00
16461;BME280;8341;42.048;24.650;2023-03-04T05:42:29;97300.81;;;5.75;100.00
16461;BME280;8341;42.048;24.650;2023-03-04T05:44:56;97306.28;;;5.49;100.00
16461;BME280;8341;42.048;24.650;2023-03-04T05:47:23;97304.94;;;5.66;100.00
16461;BME280;8341;42.048;24.650;2023-03-04T05:49:50;97304.13;;;5.91;100.00
16461;BME280;8341;42.048;24.650;2023-03-04T05:52:17;97312.06;;;6.07;100.00
16461;BME280;8341;42.048;24.650;2023-03-04T05:54:45;97304.91;;;6.13;100.00
16461;BME280;8341;42.048;24.650;2023-03-04T05:57:12;97299.66;;;6.19;100.00
16461;BME280;8341;42.048;24.650;2023-03-04T05:59:39;97304.69;;;6.29;100.00
16461;BME280;8341;42.048;24.650;2023-03-04T06:02:06;97307.91;;;6.37;100.00
16461;BME280;8341;42.048;24.650;2023-03-04T06:04:33;97314.59;;;6.45;100.00
16461;BME280;8341;42.048;24.650;2023-03-04T06:07:00;97309.66;;;6.53;100.00
16461;BME280;8341;42.048;24.650;2023-03-04T06:09:27;97307.13;;;6.58;100.00
16461;BME280;8341;42.048;24.650;2023-03-04T06:11:55;97304.72;;;6.60;100.00
16461;BME280;8341;42.048;24.650;2023-03-04T06:14:22;97312.16;;;6.69;100.00
16461;BME280;8341;42.048;24.650;2023-03-04T06:16:49;97322.72;;;6.76;100.00
16461;BME280;8341;42.048;24.650;2023-03-04T06:19:16;97324.13;;;6.80;100.00
16461;BME280;8341;42.048;24.650;2023-03-04T06:21:43;97314.50;;;6.88;100.00
16461;BME280;8341;42.048;24.650;2023-03-04T06:24:10;97315.13;;;6.92;100.00
16461;BME280;8341;42.048;24.650;2023-03-04T06:26:37;97326.09;;;6.89;100.00
16461;BME280;8341;42.048;24.650;2023-03-04T06:29:05;97328.72;;;7.02;100.00
16461;BME280;8341;42.048;24.650;2023-03-04T06:31:32;97327.56;;;7.12;100.00
16461;BME280;8341;42.048;24.650;2023-03-04T06:33:59;97330.66;;;6.92;100.00
16461;BME280;8341;42.048;24.650;2023-03-04T06:36:26;97332.00;;;6.97;100.00
16461;BME280;8341;42.048;24.650;2023-03-04T06:38:53;97333.13;;;7.08;100.00
16461;BME280;8341;42.048;24.650;2023-03-04T06:41:20;97337.22;;;7.22;100.00
16461;BME280;8341;42.048;24.650;2023-03-04T06:43:47;97338.47;;;7.30;100.00
16461;BME280;8341;42.048;24.650;2023-03-04T06:46:15;97344.25;;;7.41;100.00
16461;BME280;8341;42.048;24.650;2023-03-04T06:48:42;97339.34;;;7.27;100.00
16461;BME280;8341;42.048;24.650;2023-03-04T06:51:10;97349.19;;;7.33;100.00
16461;BME280;8341;42.048;24.650;2023-03-04T06:53:38;97344.66;;;7.30;100.00
16461;BME280;8341;42.048;24.650;2023-03-04T06:56:07;97347.66;;;7.32;100.00
16461;BME280;8341;42.048;24.650;2023-03-04T06:58:34;97353.75;;;6.75;100.00
16461;BME280;8341;42.048;24.650;2023-03-04T07:01:12;97356.06;;;6.85;100.00
16461;BME280;8341;42.048;24.650;2023-03-04T07:03:40;97338.22;;;7.06;100.00
16461;BME280;8341;42.048;24.650;2023-03-04T07:06:08;97355.97;;;6.98;100.00
16461;BME280;8341;42.048;24.650;2023-03-04T09:15:51;97315.75;;;9.71;94.23
16461;BME280;8341;42.048;24.650;2023-03-04T09:18:19;97315.06;;;9.61;97.99
16461;BME280;8341;42.048;24.650;2023-03-04T09:20:46;97316.50;;;9.48;96.90
16461;BME280;8341;42.048;24.650;2023-03-04T09:23:14;97311.81;;;9.15;99.60
16461;BME280;8341;42.048;24.650;2023-03-04T09:25:42;97311.47;;;9.31;99.79
16461;BME280;8341;42.048;24.650;2023-03-04T09:28:11;97307.00;;;9.10;99.94
16461;BME280;8341;42.048;24.650;2023-03-04T09:30:38;97312.06;;;8.94;100.00
16461;BME280;8341;42.048;24.650;2023-03-04T09:33:06;97311.56;;;9.04;100.00
16461;BME280;8341;42.048;24.650;2023-03-04T09:35:33;97307.94;;;9.07;100.00
16461;BME280;8341;42.048;24.650;2023-03-04T09:38:00;97304.44;;;9.16;100.00
16461;BME280;8341;42.048;24.650;2023-03-04T09:40:29;97314.47;;;8.92;100.00
16461;BME280;8341;42.048;24.650;2023-03-04T09:43:00;97299.59;;;8.69;100.00
16461;BME280;8341;42.048;24.650;2023-03-04T09:45:34;97299.97;;;8.35;100.00
16461;BME280;8341;42.048;24.650;2023-03-04T09:48:06;97308.53;;;8.69;100.00
16461;BME280;8341;42.048;24.650;2023-03-04T09:50:40;97307.31;;;9.12;100.00
16461;BME280;8341;42.048;24.650;2023-03-04T09:53:18;97317.56;;;9.17;100.00
16461;BME280;8341;42.048;24.650;2023-03-04T09:55:49;97307.56;;;9.23;100.00
16461;BME280;8341;42.048;24.650;2023-03-04T09:58:27;97305.72;;;9.29;100.00
16461;BME280;8341;42.048;24.650;2023-03-04T10:01:02;97307.56;;;9.23;100.00
16461;BME280;8341;42.048;24.650;2023-03-04T10:03:41;97303.69;;;9.39;100.00
16461;BME280;8341;42.048;24.650;2023-03-04T10:06:12;97306.31;;;9.33;100.00
16461;BME280;8341;42.048;24.650;2023-03-04T10:08:45;97303.34;;;9.46;100.00
16461;BME280;8341;42.048;24.650;2023-03-04T10:11:16;97303.44;;;9.28;99.05
16461;BME280;8341;42.048;24.650;2023-03-04T10:13:53;97299.94;;;9.36;99.74
16461;BME280;8341;42.048;24.650;2023-03-04T10:16:25;97301.00;;;9.06;98.64
16461;BME280;8341;42.048;24.650;2023-03-04T10:18:58;97289.22;;;9.00;100.00
16461;BME280;8341;42.048;24.650;2023-03-04T10:21:30;97286.78;;;9.11;100.00
16461;BME280;8341;42.048;24.650;2023-03-04T10:23:59;97288.53;;;9.23;100.00
16461;BME280;8341;42.048;24.650;2023-03-04T17:42:50;96979.38;;;8.11;100.00
16461;BME280;8341;42.048;24.650;2023-03-04T17:45:17;96979.81;;;8.09;100.00
16461;BME280;8341;42.048;24.650;2023-03-04T17:47:43;96979.25;;;8.05;100.00
16461;BME280;8341;42.048;24.650;2023-03-04T17:50:11;96982.41;;;8.04;100.00
16461;BME280;8341;42.048;24.650;2023-03-04T17:52:38;96982.81;;;8.11;100.00
16461;BME280;8341;42.048;24.650;2023-03-04T17:55:06;96969.88;;;8.06;100.00
16461;BME280;8341;42.048;24.650;2023-03-04T17:57:34;96978.25;;;8.17;100.00
16461;BME280;8341;42.048;24.650;2023-03-04T18:00:04;96977.06;;;8.18;100.00
16461;BME280;8341;42.048;24.650;2023-03-04T18:02:31;96972.53;;;8.15;100.00
16461;BME280;8341;42.048;24.650;2023-03-04T18:04:58;96975.09;;;8.19;100.00
16461;BME280;8341;42.048;24.650;2023-03-04T18:07:24;96979.16;;;8.24;100.00
16461;BME280;8341;42.048;24.650;2023-03-04T18:09:51;96978.66;;;8.25;100.00
16461;BME280;8341;42.048;24.650;2023-03-04T18:12:18;96970.84;;;8.27;100.00
16461;BME280;8341;42.048;24.650;2023-03-04T18:14:45;96974.00;;;8.26;100.00
16461;BME280;8341;42.048;24.650;2023-03-04T18:17:13;96973.13;;;8.19;100.00
16461;BME280;8341;42.048;24.650;2023-03-04T18:19:40;96973.44;;;8.22;100.00
16461;BME280;8341;42.048;24.650;2023-03-04T18:22:07;96970.22;;;7.99;100.00
16461;BME280;8341;42.048;24.650;2023-03-04T18:24:34;96966.53;;;8.11;100.00
16461;BME280;8341;42.048;24.650;2023-03-04T18:27:04;96970.41;;;8.19;100.00
16461;BME280;8341;42.048;24.650;2023-03-04T18:29:31;96971.28;;;8.26;100.00
16461;BME280;8341;42.048;24.650;2023-03-04T18:31:58;96960.88;;;8.24;100.00
16461;BME280;8341;42.048;24.650;2023-03-04T18:34:27;96958.00;;;8.28;100.00
16461;BME280;8341;42.048;24.650;2023-03-04T18:36:54;96957.56;;;8.29;100.00
16461;BME280;8341;42.048;24.650;2023-03-04T18:39:20;96960.84;;;8.33;100.00
16461;BME280;8341;42.048;24.650;2023-03-04T18:41:47;96960.56;;;8.31;100.00
16461;BME280;8341;42.048;24.650;2023-03-04T18:44:14;96959.81;;;8.31;100.00
16461;BME280;8341;42.048;24.650;2023-03-04T18:46:43;96957.38;;;8.33;100.00
16461;BME280;8341;42.048;24.650;2023-03-04T18:49:12;96962.84;;;8.24;100.00
16461;BME280;8341;42.048;24.650;2023-03-04T18:51:41;96962.25;;;8.19;100.00
16461;BME280;8341;42.048;24.650;2023-03-04T18:54:08;96956.53;;;8.27;100.00
16461;BME280;8341;42.048;24.650;2023-03-04T18:56:37;96958.91;;;8.25;100.00
16461;BME280;8341;42.048;24.650;2023-03-04T18:59:09;96955.34;;;8.18;100.00
16461;BME280;8341;42.048;24.650;2023-03-04T19:01:38;96962.59;;;8.12;100.00
16461;BME280;8341;42.048;24.650;2023-03-04T19:04:05;96955.81;;;7.84;100.00
16461;BME280;8341;42.048;24.650;2023-03-04T19:06:32;96950.44;;;7.75;100.00
16461;BME280;8341;42.048;24.650;2023-03-04T19:09:01;96967.03;;;7.77;100.00
16461;BME280;8341;42.048;24.650;2023-03-04T19:11:28;96957.50;;;7.82;100.00
16461;BME280;8341;42.048;24.650;2023-03-04T19:13:55;96962.44;;;7.83;100.00
16461;BME280;8341;42.048;24.650;2023-03-04T19:16:22;96956.59;;;7.76;100.00
16461;BME280;8341;42.048;24.650;2023-03-04T19:18:49;96962.50;;;7.74;100.00
16461;BME280;8341;42.048;24.650;2023-03-04T19:21:16;96961.69;;;7.50;100.00
16461;BME280;8341;42.048;24.650;2023-03-04T19:23:43;96956.88;;;7.54;100.00
16461;BME280;8341;42.048;24.650;2023-03-04T19:26:12;96960.06;;;7.43;100.00
16461;BME280;8341;42.048;24.650;2023-03-04T19:28:40;96969.09;;;7.49;100.00
16461;BME280;8341;42.048;24.650;2023-03-04T19:31:07;96964.44;;;7.41;100.00
16461;BME280;8341;42.048;24.650;2023-03-04T19:33:35;96969.88;;;7.41;100.00
16461;BME280;8341;42.048;24.650;2023-03-04T19:36:04;96970.63;;;7.41;100.00
16461;BME280;8341;42.048;24.650;2023-03-04T19:38:32;96969.88;;;7.41;100.00
16461;BME280;8341;42.048;24.650;2023-03-04T19:41:07;96968.97;;;7.44;100.00
16461;BME280;8341;42.048;24.650;2023-03-04T19:43:35;96967.63;;;7.39;100.00
16461;BME280;8341;42.048;24.650;2023-03-04T19:46:04;96966.88;;;7.39;100.00
16461;BME280;8341;42.048;24.650;2023-03-04T19:48:31;96967.78;;;7.36;100.00
16461;BME280;8341;42.048;24.650;2023-03-04T19:50:58;96973.47;;;7.47;100.00
16461;BME280;8341;42.048;24.650;2023-03-04T19:53:25;96967.13;;;7.50;100.00
16461;BME280;8341;42.048;24.650;2023-03-04T19:55:52;96970.44;;;7.45;100.00
16461;BME280;8341;42.048;24.650;2023-03-04T19:58:19;96966.13;;;7.29;100.00
16461;BME280;8341;42.048;24.650;2023-03-04T20:00:48;96968.06;;;7.38;100.00
16461;BME280;8341;42.048;24.650;2023-03-04T20:03:17;96962.50;;;7.41;100.00
16461;BME280;8341;42.048;24.650;2023-03-04T20:05:44;96959.50;;;7.39;100.00
16461;BME280;8341;42.048;24.650;2023-03-04T20:08:12;96951.22;;;7.25;100.00
16461;BME280;8341;42.048;24.650;2023-03-04T20:10:39;96954.56;;;7.20;100.00
16461;BME280;8341;42.048;24.650;2023-03-04T20:13:07;96955.78;;;7.10;100.00
16461;BME280;8341;42.048;24.650;2023-03-04T20:15:34;96954.41;;;7.14;100.00
16461;BME280;8341;42.048;24.650;2023-03-04T20:18:03;96953.22;;;7.15;100.00
16461;BME280;8341;42.048;24.650;2023-03-04T20:20:30;96949.16;;;7.11;100.00
16461;BME280;8341;42.048;24.650;2023-03-04T20:22:57;96944.38;;;7.06;100.00
16461;BME280;8341;42.048;24.650;2023-03-04T20:25:24;96934.59;;;6.90;100.00
16461;BME280;8341;42.048;24.650;2023-03-04T20:27:53;96944.53;;;6.84;100.00
16461;BME280;8341;42.048;24.650;2023-03-04T20:30:20;96936.25;;;6.87;100.00
16461;BME280;8341;42.048;24.650;2023-03-04T20:32:47;96936.41;;;6.84;100.00
16461;BME280;8341;42.048;24.650;2023-03-04T20:35:15;96942.88;;;6.86;100.00
16461;BME280;8341;42.048;24.650;2023-03-04T20:37:44;96935.97;;;6.76;100.00
16461;BME280;8341;42.048;24.650;2023-03-04T20:40:12;96935.34;;;6.81;100.00
16461;BME280;8341;42.048;24.650;2023-03-04T20:42:39;96930.56;;;6.76;100.00
16461;BME280;8341;42.048;24.650;2023-03-04T20:45:06;96926.78;;;6.74;100.00
16461;BME280;8341;42.048;24.650;2023-03-04T20:47:33;96937.47;;;6.77;100.00
16461;BME280;8341;42.048;24.650;2023-03-04T20:50:01;96935.38;;;6.72;100.00
16461;BME280;8341;42.048;24.650;2023-03-04T20:55:05;96925.16;;;6.67;100.00
16461;BME280;8341;42.048;24.650;2023-03-04T20:57:32;96928.91;;;6.61;100.00
16461;BME280;8341;42.048;24.650;2023-03-04T20:59:59;96930.44;;;6.62;100.00
16461;BME280;8341;42.048;24.650;2023-03-04T21:02:26;96936.75;;;6.59;100.00
16461;BME280;8341;42.048;24.650;2023-03-04T21:04:52;96921.22;;;6.50;100.00
16461;BME280;8341;42.048;24.650;2023-03-04T21:07:19;96933.28;;;6.58;100.00
16461;BME280;8341;42.048;24.650;2023-03-04T21:09:48;96927.28;;;6.54;100.00
16461;BME280;8341;42.048;24.650;2023-03-04T21:12:16;96935.69;;;6.47;100.00
16461;BME280;8341;42.048;24.650;2023-03-04T21:14:43;96934.50;;;6.48;100.00
16461;BME280;8341;42.048;24.650;2023-03-04T21:17:11;96918.69;;;6.47;100.00
16461;BME280;8341;42.048;24.650;2023-03-04T21:19:39;96929.22;;;6.54;100.00
16461;BME280;8341;42.048;24.650;2023-03-04T21:22:09;96922.16;;;6.56;100.00
16461;BME280;8341;42.048;24.650;2023-03-04T21:24:38;96919.16;;;6.36;100.00
16461;BME280;8341;42.048;24.650;2023-03-04T21:27:05;96919.28;;;6.32;100.00
16461;BME280;8341;42.048;24.650;2023-03-04T21:29:34;96917.34;;;6.33;100.00
16461;BME280;8341;42.048;24.650;2023-03-04T21:32:03;96910.56;;;6.19;100.00
16461;BME280;8341;42.048;24.650;2023-03-04T21:34:33;96910.09;;;6.12;100.00
16461;BME280;8341;42.048;24.650;2023-03-04T21:37:01;96908.47;;;6.23;100.00
16461;BME280;8341;42.048;24.650;2023-03-04T21:39:29;96905.75;;;6.23;100.00
16461;BME280;8341;42.048;24.650;2023-03-04T21:41:56;96890.25;;;5.88;100.00
16461;BME280;8341;42.048;24.650;2023-03-04T21:44:23;96890.69;;;5.95;100.00
16461;BME280;8341;42.048;24.650;2023-03-04T21:46:53;96897.63;;;6.05;100.00
16461;BME280;8341;42.048;24.650;2023-03-04T21:49:20;96895.06;;;6.11;100.00
16461;BME280;8341;42.048;24.650;2023-03-04T21:51:47;96898.69;;;6.08;100.00
16461;BME280;8341;42.048;24.650;2023-03-04T21:54:14;96892.50;;;5.98;100.00
16461;BME280;8341;42.048;24.650;2023-03-04T21:56:41;96881.19;;;5.91;100.00
16461;BME280;8341;42.048;24.650;2023-03-04T21:59:10;96888.13;;;5.92;100.00
16461;BME280;8341;42.048;24.650;2023-03-04T22:01:38;96865.13;;;5.87;100.00
16461;BME280;8341;42.048;24.650;2023-03-04T22:04:07;96869.59;;;5.81;100.00
16461;BME280;8341;42.048;24.650;2023-03-04T22:06:33;96866.47;;;5.92;100.00
16461;BME280;8341;42.048;24.650;2023-03-04T22:09:02;96872.22;;;6.03;100.00
16461;BME280;8341;42.048;24.650;2023-03-04T22:11:30;96877.31;;;6.10;100.00
16461;BME280;8341;42.048;24.650;2023-03-04T22:13:58;96871.44;;;6.02;100.00
16461;BME280;8341;42.048;24.650;2023-03-04T22:16:26;96877.75;;;5.99;100.00
16461;BME280;8341;42.048;24.650;2023-03-04T22:18:55;96873.34;;;5.75;100.00
16461;BME280;8341;42.048;24.650;2023-03-04T22:21:23;96867.91;;;5.56;100.00
16461;BME280;8341;42.048;24.650;2023-03-04T22:23:50;96876.59;;;5.51;100.00
16461;BME280;8341;42.048;24.650;2023-03-04T22:26:20;96872.38;;;5.41;100.00
16461;BME280;8341;42.048;24.650;2023-03-04T22:28:51;96861.97;;;5.31;100.00
16461;BME280;8341;42.048;24.650;2023-03-04T22:31:20;96867.22;;;5.34;100.00